Terminal Aerodrome Forecast
Issued by NWS

Home | Current Version | Previous Version | Text Only | Print | Product List | Glossary On
Versions: 1 2 3 4 5 6 7 8 9 10 11 12 13 14 15 16 17 18 19 20 21 22
600
FTUS43 KTOP 271306 AAA
TAFFOE
TAF AMD
KFOE 271306Z 2713/2812 14009KT P6SM SCT030 BKN150
      TEMPO 2713/2716 BKN004
     FM271600 17010KT P6SM SCT035
     FM271900 15010KT P6SM VCTS SCT020 BKN040CB
     FM280600 15004KT P6SM SCT030 BKN100=

USA.gov is the U.S. government's official web portal to all federal, state and local government web resources and services.